Pluma Del Pato, Argentina
Current Conditions -  °F | °C
As of 5:00 PM on Monday 20 Oct 2014 (Local Time) from SASJ Reporting Station
Overcast Overcast  
Wind Chill: 68°   Ceiling: 1100
Heat Index: 68°   Visibility: 6mi
Dew Point: 63°   Wind: 3mph
Humidity: 83%   Direction: 90°E
Pressure: 30.12"   Gusts: NA
Location:  23.38°S, 63.1°W
Report Text: SASJ 202000Z 09003KT 9999 BKN011 BKN020OVC100 20/17 Q1020
Loading
Personal Weather Stations






























Interactive Weather Map
Tropical Storm Tracking
New forecast layout! Learn more

10-Day Weather Forecast

Advertisements
Track Severe Weather on mobile